TimePST,TemperatureF,Dew PointF,Humidity,Sea Level PressureIn,VisibilityMPH,Wind Direction,Wind SpeedMPH,Gust SpeedMPH,PrecipitationIn,Events,Conditions,WindDirDegrees,DateUTC
12:53 AM,51.1,39.0,63,30.01,10.0,Calm,Calm,-,N/A,,Clear,0,2012-11-15 08:53:00
1:53 AM,53.1,42.1,66,30.02,10.0,NE,4.6,-,N/A,,Clear,50,2012-11-15 09:53:00
2:53 AM,53.1,45.0,74,30.01,10.0,Calm,Calm,-,N/A,,Clear,0,2012-11-15 10:53:00
3:53 AM,54.0,46.0,75,30.01,10.0,ENE,5.8,-,N/A,,Clear,60,2012-11-15 11:53:00
4:53 AM,52.0,48.0,86,30.01,9.0,NNE,3.5,-,N/A,,Clear,30,2012-11-15 12:53:00
5:53 AM,51.1,41.0,68,30.01,10.0,NE,4.6,-,N/A,,Scattered Clouds,40,2012-11-15 13:53:00
6:53 AM,53.1,42.1,66,30.02,10.0,Calm,Calm,-,N/A,,Mostly Cloudy,0,2012-11-15 14:53:00
7:53 AM,52.0,42.1,69,30.05,10.0,Calm,Calm,-,N/A,,Overcast,0,2012-11-15 15:53:00
8:53 AM,60.1,48.9,67,30.07,10.0,ENE,6.9,-,N/A,,Overcast,60,2012-11-15 16:53:00
9:53 AM,62.1,48.9,62,30.08,8.0,ESE,6.9,-,N/A,,Overcast,110,2012-11-15 17:53:00
10:48 AM,62.6,51.8,68,30.09,8.0,ESE,8.1,-,N/A,,Overcast,120,2012-11-15 18:48:00
10:53 AM,62.1,53.1,72,30.09,7.0,SE,8.1,-,N/A,,Overcast,130,2012-11-15 18:53:00
11:53 AM,64.0,55.0,73,30.08,6.0,SE,6.9,-,N/A,,Haze,130,2012-11-15 19:53:00
12:00 PM,62.6,55.4,77,30.08,6.0,SE,8.1,-,N/A,,Haze,130,2012-11-15 20:00:00
12:53 PM,64.0,55.0,73,30.06,10.0,SE,9.2,-,N/A,,Overcast,130,2012-11-15 20:53:00
1:53 PM,64.0,55.9,75,30.05,10.0,ESE,11.5,-,N/A,,Mostly Cloudy,110,2012-11-15 21:53:00
2:53 PM,64.9,55.9,73,30.04,10.0,ESE,8.1,-,N/A,,Mostly Cloudy,120,2012-11-15 22:53:00
3:53 PM,64.0,54.0,70,30.04,10.0,Calm,Calm,-,N/A,,Overcast,0,2012-11-15 23:53:00
4:53 PM,61.0,55.9,83,30.04,10.0,SE,5.8,-,0.00,,Overcast,130,2012-11-16 00:53:00
5:53 PM,61.0,57.0,87,30.04,10.0,East,5.8,-,0.00,,Overcast,100,2012-11-16 01:53:00
6:53 PM,60.1,55.0,83,30.05,10.0,East,6.9,-,0.01,,Mostly Cloudy,100,2012-11-16 02:53:00
7:53 PM,60.1,53.1,78,30.06,10.0,East,3.5,-,N/A,,Mostly Cloudy,100,2012-11-16 03:53:00
8:53 PM,57.0,51.1,81,30.08,10.0,NE,4.6,-,N/A,,Partly Cloudy,50,2012-11-16 04:53:00
9:53 PM,59.0,52.0,78,30.09,10.0,East,6.9,-,N/A,,Partly Cloudy,90,2012-11-16 05:53:00
10:53 PM,55.9,50.0,80,30.08,10.0,Calm,Calm,-,N/A,,Mostly Cloudy,0,2012-11-16 06:53:00
11:53 PM,53.1,48.9,86,30.06,10.0,ENE,3.5,-,N/A,,Clear,70,2012-11-16 07:53:00